Time;durP1;ratioP1;P1;durP2;ratioP2;P2;SDS_P1;SDS_P2;PMS_P1;PMS_P2;Temp;Humidity;BMP_temperature;BMP_pressure;BME280_temperature;BME280_humidity;BME280_pressure;Samples;Min_cycle;Max_cycle;Signal;HPM_P1;HPM_P2
2021/11/22 00:02:23;;;;;;;25.23;16.55;;;;;;;;;;5054832;28;20526;-59
2021/11/22 00:04:49;;;;;;;26.70;16.77;;;;;;;;;;5035219;28;20456;-58
2021/11/22 00:07:16;;;;;;;23.13;16.10;;;;;;;;;;5035006;28;20107;-59
2021/11/22 00:09:42;;;;;;;25.77;16.20;;;;;;;;;;5034390;28;20160;-59
2021/11/22 00:12:09;;;;;;;22.77;16.30;;;;;;;;;;5034862;28;20021;-59
2021/11/22 00:14:35;;;;;;;23.52;16.38;;;;;;;;;;5034736;28;20018;-59
2021/11/22 00:17:01;;;;;;;21.15;14.90;;;;;;;;;;5034766;28;20348;-59
2021/11/22 00:19:27;;;;;;;30.50;18.52;;;;;;;;;;5034492;28;20448;-60
2021/11/22 00:21:53;;;;;;;21.17;14.18;;;;;;;;;;5034741;28;20088;-59
2021/11/22 00:24:19;;;;;;;22.00;16.38;;;;;;;;;;5034635;28;20022;-59
2021/11/22 00:26:45;;;;;;;21.10;16.25;;;;;;;;;;5034497;28;20395;-59
2021/11/22 00:29:11;;;;;;;23.88;16.95;;;;;;;;;;5033918;28;20035;-59
2021/11/22 00:31:37;;;;;;;22.00;16.13;;;;;;;;;;5034466;28;20033;-60
2021/11/22 00:34:04;;;;;;;20.13;15.10;;;;;;;;;;5034534;28;20387;-59
2021/11/22 00:36:30;;;;;;;21.35;15.98;;;;;;;;;;5034326;28;20076;-59
2021/11/22 00:38:56;;;;;;;23.65;16.17;;;;;;;;;;5033598;28;20061;-59
2021/11/22 00:41:22;;;;;;;27.35;15.02;;;;;;;;;;5034543;28;20439;-60
2021/11/22 00:43:48;;;;;;;25.95;16.75;;;;;;;;;;5034169;28;20025;-59
2021/11/22 00:46:14;;;;;;;25.92;15.93;;;;;;;;;;5033794;28;20117;-59
2021/11/22 00:48:40;;;;;;;28.95;17.02;;;;;;;;;;5033788;28;20108;-59
2021/11/22 00:51:06;;;;;;;32.60;18.52;;;;;;;;;;5034260;28;20112;-58
2021/11/22 00:53:32;;;;;;;31.63;18.65;;;;;;;;;;5034235;28;20025;-59
2021/11/22 00:55:58;;;;;;;26.52;14.40;;;;;;;;;;5034032;28;20064;-59
2021/11/22 00:58:24;;;;;;;39.47;18.15;;;;;;;;;;5033152;28;20025;-59
2021/11/22 01:00:50;;;;;;;26.38;17.45;;;;;;;;;;5034228;28;20026;-59
2021/11/22 01:03:17;;;;;;;27.08;17.35;;;;;;;;;;5040909;28;20020;-59
2021/11/22 01:05:43;;;;;;;28.23;16.83;;;;;;;;;;5053617;28;20060;-59
2021/11/22 01:08:09;;;;;;;27.65;18.30;;;;;;;;;;5053184;28;20051;-59
2021/11/22 01:10:37;;;;;;;31.73;17.25;;;;;;;;;;5053845;28;20056;-59
2021/11/22 01:13:03;;;;;;;27.10;16.45;;;;;;;;;;5053462;28;20033;-59
2021/11/22 01:15:31;;;;;;;29.17;17.25;;;;;;;;;;5053820;28;20454;-59
2021/11/22 01:17:57;;;;;;;25.02;15.75;;;;;;;;;;5052961;28;20037;-59
2021/11/22 01:20:29;;;;;;;20.83;16.52;;;;;;;;;;5053500;28;20071;-59
2021/11/22 01:23:05;;;;;;;23.35;17.40;;;;;;;;;;5053548;28;20029;-59
2021/11/22 01:25:32;;;;;;;23.95;16.83;;;;;;;;;;5053286;28;20131;-59
2021/11/22 01:27:58;;;;;;;29.67;17.10;;;;;;;;;;5052653;28;20394;-59
2021/11/22 01:30:24;;;;;;;25.15;16.10;;;;;;;;;;5053528;28;20429;-59
2021/11/22 01:32:50;;;;;;;20.98;13.63;;;;;;;;;;5053477;28;20025;-59
2021/11/22 01:35:16;;;;;;;24.73;17.15;;;;;;;;;;5053054;28;20028;-59
2021/11/22 01:37:43;;;;;;;18.70;12.80;;;;;;;;;;5052658;28;20029;-59
2021/11/22 01:40:10;;;;;;;27.98;16.70;;;;;;;;;;5052696;28;20036;-59
2021/11/22 01:42:38;;;;;;;26.95;17.65;;;;;;;;;;5053227;28;20025;-60
2021/11/22 01:45:05;;;;;;;21.73;16.50;;;;;;;;;;5051874;28;20033;-59
2021/11/22 01:47:31;;;;;;;24.88;15.75;;;;;;;;;;5052890;28;20375;-59
2021/11/22 01:49:57;;;;;;;28.35;18.33;;;;;;;;;;5052389;28;20025;-58
2021/11/22 01:52:23;;;;;;;29.52;17.15;;;;;;;;;;5052778;28;20017;-59
2021/11/22 01:54:49;;;;;;;26.17;16.27;;;;;;;;;;5052624;28;20104;-59
2021/11/22 01:57:15;;;;;;;24.50;16.02;;;;;;;;;;5052728;28;20033;-59
2021/11/22 01:59:41;;;;;;;29.27;15.80;;;;;;;;;;5051767;28;20025;-59
2021/11/22 02:02:09;;;;;;;26.45;16.80;;;;;;;;;;5052934;28;20426;-59
2021/11/22 02:04:35;;;;;;;29.40;16.02;;;;;;;;;;5034797;28;20076;-59
2021/11/22 02:07:01;;;;;;;34.35;17.10;;;;;;;;;;5032561;28;20033;-59
2021/11/22 02:09:26;;;;;;;29.52;17.08;;;;;;;;;;5030518;28;20028;-59
2021/11/22 02:11:53;;;;;;;34.58;17.90;;;;;;;;;;5032682;28;20021;-59
2021/11/22 02:14:19;;;;;;;28.65;17.35;;;;;;;;;;5032485;28;20356;-59
2021/11/22 02:16:45;;;;;;;28.15;19.25;;;;;;;;;;5032648;28;20028;-59
2021/11/22 02:19:12;;;;;;;29.38;16.92;;;;;;;;;;5031883;28;20073;-59
2021/11/22 02:21:38;;;;;;;28.77;17.30;;;;;;;;;;5032436;28;20123;-59
2021/11/22 02:24:04;;;;;;;29.20;19.80;;;;;;;;;;5032194;28;20032;-59
2021/11/22 02:26:30;;;;;;;23.65;16.90;;;;;;;;;;5032754;28;20148;-60
2021/11/22 02:28:56;;;;;;;28.50;19.95;;;;;;;;;;5031831;28;20399;-59
2021/11/22 02:31:23;;;;;;;24.73;15.77;;;;;;;;;;5032442;28;20018;-59
2021/11/22 02:33:52;;;;;;;25.35;17.73;;;;;;;;;;5032196;28;20459;-59
2021/11/22 02:36:18;;;;;;;27.90;17.52;;;;;;;;;;5032154;28;20040;-59
2021/11/22 02:38:44;;;;;;;38.20;18.73;;;;;;;;;;5031379;28;20562;-59
2021/11/22 02:41:11;;;;;;;25.48;17.38;;;;;;;;;;5032712;28;20060;-59
2021/11/22 02:43:39;;;;;;;32.67;20.10;;;;;;;;;;5032318;28;20064;-58
2021/11/22 02:46:05;;;;;;;24.25;16.90;;;;;;;;;;5032191;28;20387;-59
2021/11/22 02:48:31;;;;;;;21.65;15.63;;;;;;;;;;5031532;28;20455;-60
2021/11/22 02:50:57;;;;;;;27.77;17.50;;;;;;;;;;5032030;28;20039;-59
2021/11/22 02:53:24;;;;;;;25.92;16.92;;;;;;;;;;5032124;28;20033;-60
2021/11/22 02:55:50;;;;;;;36.50;20.60;;;;;;;;;;5032201;28;20031;-60
2021/11/22 02:58:16;;;;;;;30.77;15.93;;;;;;;;;;5031362;28;20030;-59
2021/11/22 03:00:42;;;;;;;26.58;16.95;;;;;;;;;;5032082;28;20129;-60
2021/11/22 03:03:07;;;;;;;23.70;16.10;;;;;;;;;;5037715;28;20439;-60
2021/11/22 03:05:34;;;;;;;24.48;16.58;;;;;;;;;;5051696;28;20033;-59
2021/11/22 03:08:00;;;;;;;30.77;16.25;;;;;;;;;;5051279;28;20025;-60
2021/11/22 03:10:28;;;;;;;21.42;15.18;;;;;;;;;;5054040;28;20025;-60
2021/11/22 03:12:54;;;;;;;23.73;15.80;;;;;;;;;;5056095;28;20040;-60
2021/11/22 03:15:21;;;;;;;26.58;15.07;;;;;;;;;;5055850;28;20028;-59
2021/11/22 03:17:47;;;;;;;22.85;15.43;;;;;;;;;;5055312;28;20475;-60
2021/11/22 03:20:14;;;;;;;27.77;16.60;;;;;;;;;;5055623;28;20483;-59
2021/11/22 03:22:40;;;;;;;30.48;16.65;;;;;;;;;;5055888;28;20433;-57
2021/11/22 03:25:07;;;;;;;23.10;14.98;;;;;;;;;;5055769;28;20421;-58
2021/11/22 03:27:34;;;;;;;25.98;14.90;;;;;;;;;;5055734;28;20028;-57
2021/11/22 03:30:00;;;;;;;27.55;17.38;;;;;;;;;;5054994;28;20036;-58
2021/11/22 03:32:26;;;;;;;21.42;14.93;;;;;;;;;;5055697;28;20025;-58
2021/11/22 03:34:52;;;;;;;26.08;16.45;;;;;;;;;;5055309;28;20419;-57
2021/11/22 03:37:18;;;;;;;22.77;14.95;;;;;;;;;;5055671;28;20037;-58
2021/11/22 03:39:48;;;;;;;24.02;16.60;;;;;;;;;;5054590;28;20029;-57
2021/11/22 03:42:16;;;;;;;24.17;16.83;;;;;;;;;;5055433;28;20074;-57
2021/11/22 03:44:43;;;;;;;29.38;19.42;;;;;;;;;;5055258;28;20074;-57
2021/11/22 03:47:09;;;;;;;19.13;14.48;;;;;;;;;;5055133;28;20032;-57
2021/11/22 03:49:35;;;;;;;34.35;17.15;;;;;;;;;;5054527;28;20072;-58
2021/11/22 03:52:02;;;;;;;30.75;18.77;;;;;;;;;;5055454;28;20170;-57
2021/11/22 03:54:28;;;;;;;21.77;16.13;;;;;;;;;;5054967;28;20025;-57
2021/11/22 03:56:54;;;;;;;30.25;17.50;;;;;;;;;;5055028;28;20459;-58
2021/11/22 03:59:20;;;;;;;21.80;14.38;;;;;;;;;;5053969;28;20178;-57
2021/11/22 04:01:46;;;;;;;26.55;17.85;;;;;;;;;;5054507;28;20021;-57
2021/11/22 04:04:12;;;;;;;23.08;15.93;;;;;;;;;;5040290;28;20029;-57
2021/11/22 04:06:38;;;;;;;26.35;16.13;;;;;;;;;;5034973;28;20033;-56
2021/11/22 04:09:05;;;;;;;25.85;15.10;;;;;;;;;;5034082;28;20056;-57
2021/11/22 04:11:31;;;;;;;24.73;16.35;;;;;;;;;;5034876;28;20547;-57
2021/11/22 04:13:57;;;;;;;24.73;16.92;;;;;;;;;;5034899;28;20029;-59
2021/11/22 04:16:23;;;;;;;22.85;16.27;;;;;;;;;;5034554;28;20059;-59
2021/11/22 04:18:49;;;;;;;20.60;13.20;;;;;;;;;;5034596;28;20087;-59
2021/11/22 04:21:16;;;;;;;25.02;15.48;;;;;;;;;;5034029;28;20033;-59
2021/11/22 04:23:42;;;;;;;24.95;13.10;;;;;;;;;;5034726;28;20087;-59
2021/11/22 04:26:10;;;;;;;23.00;14.27;;;;;;;;;;5034694;28;20025;-59
2021/11/22 04:28:36;;;;;;;19.40;13.90;;;;;;;;;;5034105;28;20504;-59
2021/11/22 04:31:02;;;;;;;24.00;14.38;;;;;;;;;;5029931;28;20091;-59
2021/11/22 04:33:28;;;;;;;15.70;12.65;;;;;;;;;;5035135;28;20412;-59
2021/11/22 04:35:54;;;;;;;24.00;12.05;;;;;;;;;;5034416;28;20474;-59
2021/11/22 04:38:20;;;;;;;16.25;12.63;;;;;;;;;;5033953;28;20046;-59
2021/11/22 04:40:46;;;;;;;14.50;11.00;;;;;;;;;;5034421;28;20097;-59
2021/11/22 04:43:12;;;;;;;15.68;11.77;;;;;;;;;;5041684;28;20469;-59
2021/11/22 04:45:38;;;;;;;20.00;13.05;;;;;;;;;;5052122;28;20037;-59
2021/11/22 04:48:05;;;;;;;20.42;13.70;;;;;;;;;;5054052;28;20171;-59
2021/11/22 04:50:31;;;;;;;18.48;13.75;;;;;;;;;;5054094;28;20362;-59
2021/11/22 04:52:59;;;;;;;17.92;12.95;;;;;;;;;;5047000;28;20032;-59
2021/11/22 04:55:25;;;;;;;20.63;13.50;;;;;;;;;;5033875;28;20119;-60
2021/11/22 04:57:51;;;;;;;17.23;13.85;;;;;;;;;;5033293;28;20033;-59
2021/11/22 05:00:18;;;;;;;19.10;13.60;;;;;;;;;;5033873;28;20029;-59
2021/11/22 05:02:45;;;;;;;16.98;12.48;;;;;;;;;;5034702;28;20117;-59
2021/11/22 05:05:12;;;;;;;15.77;10.82;;;;;;;;;;5034028;28;20047;-59
2021/11/22 05:07:38;;;;;;;15.38;12.10;;;;;;;;;;5034227;28;20037;-59
2021/11/22 05:10:05;;;;;;;14.75;12.60;;;;;;;;;;5033141;28;20021;-59
2021/11/22 05:12:31;;;;;;;18.30;11.70;;;;;;;;;;5034343;28;20017;-59
2021/11/22 05:14:57;;;;;;;16.63;12.88;;;;;;;;;;5039420;28;20025;-59
2021/11/22 05:17:23;;;;;;;19.90;13.88;;;;;;;;;;5053938;28;20033;-59
2021/11/22 05:19:49;;;;;;;18.52;13.30;;;;;;;;;;5052895;28;20462;-59
2021/11/22 05:22:19;;;;;;;18.83;13.00;;;;;;;;;;5053801;28;20029;-59
2021/11/22 05:24:49;;;;;;;18.20;11.97;;;;;;;;;;5051644;28;20029;-59
2021/11/22 05:27:22;;;;;;;15.52;12.98;;;;;;;;;;5051366;28;20299;-59
2021/11/22 05:29:49;;;;;;;14.52;11.10;;;;;;;;;;5034287;28;20090;-60
2021/11/22 05:32:16;;;;;;;16.63;12.43;;;;;;;;;;5031735;28;20516;-59
2021/11/22 05:34:43;;;;;;;19.02;12.88;;;;;;;;;;5031757;28;20391;-59
2021/11/22 05:37:09;;;;;;;16.95;11.40;;;;;;;;;;5032036;28;20125;-59
2021/11/22 05:39:35;;;;;;;15.55;10.65;;;;;;;;;;5032126;28;20476;-59
2021/11/22 05:42:01;;;;;;;16.08;12.77;;;;;;;;;;5032979;28;20037;-59
2021/11/22 05:44:27;;;;;;;19.42;12.23;;;;;;;;;;5034153;28;20028;-59
2021/11/22 05:46:53;;;;;;;18.05;12.10;;;;;;;;;;5033125;28;20083;-60
2021/11/22 05:49:19;;;;;;;16.00;11.55;;;;;;;;;;5032638;28;20114;-59
2021/11/22 05:51:45;;;;;;;15.88;10.95;;;;;;;;;;5033127;28;20036;-59
2021/11/22 05:54:12;;;;;;;14.75;11.02;;;;;;;;;;5032921;28;20063;-60
2021/11/22 05:56:38;;;;;;;10.88;9.77;;;;;;;;;;5032488;28;20030;-59
2021/11/22 05:59:05;;;;;;;16.27;11.43;;;;;;;;;;5032341;28;20041;-60
2021/11/22 06:01:31;;;;;;;14.90;10.60;;;;;;;;;;5046921;28;20037;-59
2021/11/22 06:03:57;;;;;;;15.80;10.07;;;;;;;;;;5040325;28;20034;-60
2021/11/22 06:06:23;;;;;;;16.63;11.75;;;;;;;;;;5035028;28;20365;-59
2021/11/22 06:08:49;;;;;;;16.40;11.85;;;;;;;;;;5050495;28;20303;-59
2021/11/22 06:11:15;;;;;;;17.55;10.80;;;;;;;;;;5038442;28;20034;-58
2021/11/22 06:13:41;;;;;;;13.13;9.52;;;;;;;;;;5041688;28;20396;-59
2021/11/22 06:16:07;;;;;;;16.23;11.02;;;;;;;;;;5040131;28;20462;-58
2021/11/22 06:18:33;;;;;;;12.77;10.68;;;;;;;;;;5031974;28;20056;-59
2021/11/22 06:20:59;;;;;;;19.88;11.90;;;;;;;;;;5032493;28;20412;-58
2021/11/22 06:23:25;;;;;;;15.18;9.85;;;;;;;;;;5031310;28;20450;-59
2021/11/22 06:25:51;;;;;;;17.40;11.45;;;;;;;;;;5030899;28;20628;-58
2021/11/22 06:28:19;;;;;;;13.98;10.07;;;;;;;;;;5045878;28;20040;-58
2021/11/22 06:30:45;;;;;;;20.48;12.05;;;;;;;;;;5050416;28;20037;-58
2021/11/22 06:33:11;;;;;;;16.35;11.88;;;;;;;;;;5050393;28;20063;-59
2021/11/22 06:35:38;;;;;;;21.83;11.68;;;;;;;;;;5050114;28;20033;-58
2021/11/22 06:38:04;;;;;;;16.55;11.10;;;;;;;;;;5047051;28;20036;-59
2021/11/22 06:40:30;;;;;;;14.18;10.68;;;;;;;;;;5052068;28;20467;-58
2021/11/22 06:42:56;;;;;;;13.95;11.32;;;;;;;;;;5052150;28;20104;-57
2021/11/22 06:45:22;;;;;;;28.05;11.13;;;;;;;;;;5051978;28;20109;-57
2021/11/22 06:47:48;;;;;;;14.52;11.35;;;;;;;;;;5051428;28;20054;-59
2021/11/22 06:50:15;;;;;;;13.48;10.10;;;;;;;;;;5041243;28;20026;-58
2021/11/22 06:52:41;;;;;;;13.43;12.02;;;;;;;;;;5033322;28;20036;-58
2021/11/22 06:55:08;;;;;;;13.98;10.98;;;;;;;;;;5051801;28;20029;-58
2021/11/22 06:57:34;;;;;;;14.15;10.18;;;;;;;;;;5051564;28;20544;-58
2021/11/22 07:00:00;;;;;;;18.15;11.52;;;;;;;;;;5051434;28;20029;-58
2021/11/22 07:02:26;;;;;;;14.85;10.55;;;;;;;;;;5051893;28;20028;-57
2021/11/22 07:04:52;;;;;;;14.52;10.02;;;;;;;;;;5031987;28;20021;-58
2021/11/22 07:07:18;;;;;;;19.33;12.43;;;;;;;;;;5040482;28;20053;-58
2021/11/22 07:09:45;;;;;;;13.85;10.23;;;;;;;;;;5051466;28;20029;-58
2021/11/22 07:12:11;;;;;;;13.57;9.07;;;;;;;;;;5051825;28;20025;-58
2021/11/22 07:14:39;;;;;;;14.23;8.88;;;;;;;;;;5052116;28;20310;-59
2021/11/22 07:17:05;;;;;;;14.70;9.32;;;;;;;;;;5051586;28;20107;-59
2021/11/22 07:19:33;;;;;;;14.05;9.82;;;;;;;;;;5051156;28;20037;-58
2021/11/22 07:22:07;;;;;;;15.30;9.88;;;;;;;;;;5033219;28;20037;-58
2021/11/22 07:24:39;;;;;;;13.55;10.07;;;;;;;;;;5032017;28;20049;-59
2021/11/22 07:27:05;;;;;;;12.73;9.20;;;;;;;;;;5031760;28;20112;-58
2021/11/22 07:29:31;;;;;;;14.85;9.73;;;;;;;;;;5031035;28;20037;-58
2021/11/22 07:31:57;;;;;;;10.93;9.02;;;;;;;;;;5031732;28;20022;-58
2021/11/22 07:34:23;;;;;;;10.20;8.85;;;;;;;;;;5038514;28;20025;-58
2021/11/22 07:36:49;;;;;;;11.95;8.88;;;;;;;;;;5051659;28;20029;-58
2021/11/22 07:39:16;;;;;;;11.70;9.63;;;;;;;;;;5050885;28;20041;-57
2021/11/22 07:41:42;;;;;;;13.20;8.35;;;;;;;;;;5051677;28;20029;-58
2021/11/22 07:44:08;;;;;;;11.25;8.57;;;;;;;;;;5051482;28;20029;-58
2021/11/22 07:46:34;;;;;;;11.15;8.40;;;;;;;;;;5051400;28;20545;-58
2021/11/22 07:49:00;;;;;;;8.52;7.57;;;;;;;;;;5044489;28;20164;-58
2021/11/22 07:51:26;;;;;;;11.02;8.55;;;;;;;;;;5041636;28;20064;-58
2021/11/22 07:53:52;;;;;;;9.73;8.73;;;;;;;;;;5051257;28;20029;-58
2021/11/22 07:56:19;;;;;;;11.38;8.65;;;;;;;;;;5051887;28;20398;-56
2021/11/22 07:58:45;;;;;;;9.98;8.32;;;;;;;;;;5054142;28;20036;-58
2021/11/22 08:01:11;;;;;;;9.00;7.05;;;;;;;;;;5055463;28;20037;-57
2021/11/22 08:03:36;;;;;;;18.58;14.27;;;;;;;;;;5050819;28;20082;-57
2021/11/22 08:06:03;;;;;;;16.08;10.70;;;;;;;;;;5055126;28;20467;-59
2021/11/22 08:08:31;;;;;;;21.05;15.77;;;;;;;;;;5053752;28;20040;-58
2021/11/22 08:11:47;;;;;;;20.98;14.13;;;;;;;;;;5054678;28;20478;-57
2021/11/22 08:13:49;;;;;;;8.68;7.78;;;;;;;;;;5049898;28;20039;-58
2021/11/22 08:16:15;;;;;;;11.13;8.45;;;;;;;;;;5051341;28;20423;-58
2021/11/22 08:18:41;;;;;;;10.75;8.13;;;;;;;;;;5050760;28;20025;-58
2021/11/22 08:21:08;;;;;;;11.70;9.23;;;;;;;;;;5053042;28;20467;-58
2021/11/22 08:23:34;;;;;;;10.15;9.13;;;;;;;;;;5052973;28;20118;-58
2021/11/22 08:26:00;;;;;;;11.20;8.02;;;;;;;;;;5052730;28;20037;-59
2021/11/22 08:28:27;;;;;;;9.93;7.47;;;;;;;;;;5052936;28;20033;-57
2021/11/22 08:30:53;;;;;;;8.20;6.00;;;;;;;;;;5052415;28;20029;-59
2021/11/22 08:33:19;;;;;;;8.30;6.72;;;;;;;;;;5034535;28;20439;-57
2021/11/22 08:35:45;;;;;;;8.77;7.45;;;;;;;;;;5034658;28;20029;-57
2021/11/22 08:38:11;;;;;;;8.73;6.13;;;;;;;;;;5033789;28;20045;-56
2021/11/22 08:40:41;;;;;;;9.30;6.97;;;;;;;;;;5034432;28;20487;-56
2021/11/22 08:43:08;;;;;;;7.07;6.32;;;;;;;;;;5034124;28;20083;-57
2021/11/22 08:45:34;;;;;;;7.20;5.65;;;;;;;;;;5044834;28;20112;-56
2021/11/22 08:48:01;;;;;;;8.93;6.72;;;;;;;;;;5053465;28;20055;-56
2021/11/22 08:50:27;;;;;;;8.55;6.22;;;;;;;;;;5054203;28;20061;-55
2021/11/22 08:52:53;;;;;;;9.30;7.07;;;;;;;;;;5054035;28;20025;-57
2021/11/22 08:55:19;;;;;;;9.70;6.95;;;;;;;;;;5053855;28;20033;-56
2021/11/22 08:57:46;;;;;;;7.68;6.18;;;;;;;;;;5053041;28;20382;-56
2021/11/22 09:00:13;;;;;;;9.25;7.90;;;;;;;;;;5051061;28;20033;-52
2021/11/22 09:02:39;;;;;;;11.30;8.00;;;;;;;;;;5052255;28;20458;-55
2021/11/22 09:05:05;;;;;;;8.85;6.90;;;;;;;;;;5033947;28;20076;-56
2021/11/22 09:07:31;;;;;;;12.20;7.32;;;;;;;;;;5033348;28;20096;-55
2021/11/22 09:09:57;;;;;;;12.43;8.23;;;;;;;;;;5033101;28;20026;-55
2021/11/22 09:12:23;;;;;;;8.70;6.68;;;;;;;;;;5040577;28;20032;-57
2021/11/22 09:14:49;;;;;;;8.23;5.88;;;;;;;;;;5044623;28;20044;-56
2021/11/22 09:17:17;;;;;;;8.10;6.82;;;;;;;;;;5033622;28;20029;-56
2021/11/22 09:19:43;;;;;;;8.50;7.00;;;;;;;;;;5033080;28;20030;-56
2021/11/22 09:22:12;;;;;;;12.20;8.32;;;;;;;;;;5032499;28;20022;-56
2021/11/22 09:24:41;;;;;;;9.57;7.50;;;;;;;;;;5033400;28;20091;-58
2021/11/22 09:27:08;;;;;;;11.68;7.88;;;;;;;;;;5034535;28;20021;-57
2021/11/22 09:29:34;;;;;;;11.30;8.70;;;;;;;;;;5052689;28;20025;-59
2021/11/22 09:32:00;;;;;;;10.45;7.57;;;;;;;;;;5053509;28;20063;-58
2021/11/22 09:34:26;;;;;;;10.88;7.78;;;;;;;;;;5053163;28;20032;-58
2021/11/22 09:36:52;;;;;;;10.90;8.35;;;;;;;;;;5053087;28;20120;-58
2021/11/22 09:39:19;;;;;;;12.13;8.18;;;;;;;;;;5051938;28;20179;-58
2021/11/22 09:41:48;;;;;;;9.95;7.88;;;;;;;;;;5051443;28;20039;-59
2021/11/22 09:44:14;;;;;;;9.93;8.60;;;;;;;;;;5053143;28;20032;-58
2021/11/22 09:46:40;;;;;;;12.85;8.73;;;;;;;;;;5052649;28;20033;-57
2021/11/22 09:49:07;;;;;;;10.55;7.88;;;;;;;;;;5052366;28;20031;-59
2021/11/22 09:51:33;;;;;;;10.10;7.78;;;;;;;;;;5053113;28;20029;-58
2021/11/22 09:53:59;;;;;;;11.48;7.75;;;;;;;;;;5052722;28;20025;-59
2021/11/22 09:56:25;;;;;;;14.27;8.45;;;;;;;;;;5034982;28;20080;-58
2021/11/22 09:58:52;;;;;;;12.38;9.88;;;;;;;;;;5032328;28;20033;-57
2021/11/22 10:01:19;;;;;;;13.93;9.70;;;;;;;;;;5053359;28;20040;-59
2021/11/22 10:03:59;;;;;;;13.73;9.75;;;;;;;;;;5042042;28;20032;-58
2021/11/22 10:06:25;;;;;;;13.00;8.55;;;;;;;;;;5047285;28;20360;-57
2021/11/22 10:08:51;;;;;;;10.50;8.02;;;;;;;;;;5052201;28;20479;-55
2021/11/22 10:11:17;;;;;;;14.45;10.05;;;;;;;;;;5052856;28;20017;-56
2021/11/22 10:13:47;;;;;;;9.98;8.85;;;;;;;;;;5042959;28;20027;-56
2021/11/22 10:16:16;;;;;;;13.73;9.75;;;;;;;;;;5032521;28;20071;-56
2021/11/22 10:18:49;;;;;;;10.40;8.63;;;;;;;;;;5031505;28;20411;-57
2021/11/22 10:21:18;;;;;;;12.10;8.70;;;;;;;;;;5032461;28;20076;-56
2021/11/22 10:23:45;;;;;;;10.32;7.65;;;;;;;;;;5032590;28;20033;-56
2021/11/22 10:26:14;;;;;;;14.35;10.23;;;;;;;;;;5047690;28;20390;-56
2021/11/22 10:28:48;;;;;;;17.77;9.52;;;;;;;;;;5050149;28;20458;-56
2021/11/22 10:31:16;;;;;;;12.68;9.40;;;;;;;;;;5052270;28;20032;-56
2021/11/22 10:33:43;;;;;;;10.05;7.82;;;;;;;;;;5052352;28;20029;-56
2021/11/22 10:36:11;;;;;;;12.50;10.55;;;;;;;;;;5052241;28;20375;-56
2021/11/22 10:38:39;;;;;;;10.18;8.27;;;;;;;;;;5046021;28;20041;-56
2021/11/22 10:41:10;;;;;;;16.33;9.20;;;;;;;;;;5032309;28;20133;-56
2021/11/22 10:43:38;;;;;;;13.52;9.43;;;;;;;;;;5032178;28;20057;-56
2021/11/22 10:46:09;;;;;;;8.27;7.15;;;;;;;;;;5028979;28;20148;-56
2021/11/22 10:48:35;;;;;;;;;;;;;;;;;;5031909;28;20029;-56
2021/11/22 10:51:41;;;;;;;10.45;8.45;;;;;;;;;;5032154;28;20250;-55
2021/11/22 10:54:10;;;;;;;11.32;9.00;;;;;;;;;;5030669;28;20465;-56
2021/11/22 10:56:37;;;;;;;12.48;9.35;;;;;;;;;;5031535;28;20038;-56
2021/11/22 10:59:08;;;;;;;14.27;8.60;;;;;;;;;;5043108;28;20033;-56
2021/11/22 11:01:34;;;;;;;12.68;10.02;;;;;;;;;;5035389;28;20053;-56
2021/11/22 11:04:05;;;;;;;10.75;6.85;;;;;;;;;;5044603;28;20059;-56
2021/11/22 11:06:51;;;;;;;10.32;7.65;;;;;;;;;;5051697;28;20017;-56
2021/11/22 11:09:17;;;;;;;10.73;7.57;;;;;;;;;;5051387;28;20025;-56
2021/11/22 11:11:43;;;;;;;15.88;8.60;;;;;;;;;;5051250;28;20029;-56
2021/11/22 11:14:11;;;;;;;18.00;9.45;;;;;;;;;;5051850;28;20021;-55
2021/11/22 11:16:38;;;;;;;13.55;10.07;;;;;;;;;;5051791;28;20082;-56
2021/11/22 11:19:05;;;;;;;10.60;8.55;;;;;;;;;;5050928;28;20040;-56
2021/11/22 11:21:33;;;;;;;10.82;8.05;;;;;;;;;;5051755;28;20489;-56
2021/11/22 11:24:01;;;;;;;8.65;6.57;;;;;;;;;;5051928;28;20028;-55
2021/11/22 11:26:27;;;;;;;15.32;8.43;;;;;;;;;;5039720;28;20391;-56
2021/11/22 11:28:53;;;;;;;11.65;9.05;;;;;;;;;;5031336;28;20099;-54
2021/11/22 11:31:20;;;;;;;11.23;9.45;;;;;;;;;;5035302;28;20030;-55
2021/11/22 11:33:46;;;;;;;10.98;8.32;;;;;;;;;;5054969;28;20033;-55
2021/11/22 11:36:31;;;;;;;15.35;8.48;;;;;;;;;;5055271;28;20585;-58
2021/11/22 11:39:02;;;;;;;8.55;7.38;;;;;;;;;;5054696;28;20025;-57
2021/11/22 11:41:28;;;;;;;11.98;8.38;;;;;;;;;;5055693;28;20017;-58
2021/11/22 11:43:58;;;;;;;12.80;8.25;;;;;;;;;;5049133;28;20082;-58
2021/11/22 11:46:24;;;;;;;6.10;5.45;;;;;;;;;;5046472;28;20228;-58
2021/11/22 11:48:59;;;;;;;10.70;7.60;;;;;;;;;;5047177;28;20501;-59
2021/11/22 11:51:44;;;;;;;8.25;7.05;;;;;;;;;;5041693;28;20421;-58
2021/11/22 11:54:17;;;;;;;13.25;7.93;;;;;;;;;;5041467;28;20029;-58
2021/11/22 11:56:45;;;;;;;6.60;5.70;;;;;;;;;;5048671;28;20017;-58
2021/11/22 11:59:32;;;;;;;9.60;7.15;;;;;;;;;;5048817;28;20385;-56
2021/11/22 12:02:03;;;;;;;11.23;7.07;;;;;;;;;;5037697;28;20113;-58
2021/11/22 12:04:30;;;;;;;11.00;8.15;;;;;;;;;;5039577;28;20526;-58
2021/11/22 12:06:59;;;;;;;10.57;7.90;;;;;;;;;;5035702;28;20044;-57
2021/11/22 12:09:32;;;;;;;10.98;8.57;;;;;;;;;;5046242;28;20029;-58
2021/11/22 12:12:03;;;;;;;10.27;7.50;;;;;;;;;;5050887;28;20048;-58
2021/11/22 12:14:48;;;;;;;15.02;7.82;;;;;;;;;;5041612;28;20029;-58
2021/11/22 12:17:32;;;;;;;13.82;7.95;;;;;;;;;;5044854;28;20486;-57
2021/11/22 12:20:04;;;;;;;18.02;7.03;;;;;;;;;;5047844;28;20510;-57
2021/11/22 12:22:34;;;;;;;19.00;7.65;;;;;;;;;;5059755;28;20155;-58
2021/11/22 12:25:00;;;;;;;8.77;7.97;;;;;;;;;;5044858;28;20526;-58
2021/11/22 12:27:26;;;;;;;9.43;6.70;;;;;;;;;;5044666;28;20129;-58
2021/11/22 12:29:53;;;;;;;9.23;7.40;;;;;;;;;;5039560;28;20360;-58
2021/11/22 12:32:29;;;;;;;7.75;6.88;;;;;;;;;;5038814;28;20029;-57
2021/11/22 12:34:57;;;;;;;10.90;8.07;;;;;;;;;;5044430;28;20040;-58
2021/11/22 12:37:28;;;;;;;9.70;7.38;;;;;;;;;;5047474;28;20057;-57
2021/11/22 12:40:06;;;;;;;8.15;6.72;;;;;;;;;;5041730;28;20032;-57
2021/11/22 12:42:44;;;;;;;12.05;7.38;;;;;;;;;;5049015;28;20021;-58
2021/11/22 12:45:10;;;;;;;14.43;7.38;;;;;;;;;;5045330;28;20393;-58
2021/11/22 12:47:36;;;;;;;6.18;4.97;;;;;;;;;;5053465;28;20033;-58
2021/11/22 12:50:09;;;;;;;8.25;6.00;;;;;;;;;;5036387;28;20036;-55
2021/11/22 12:52:36;;;;;;;9.73;6.10;;;;;;;;;;5039511;28;20425;-57
2021/11/22 12:55:05;;;;;;;8.27;6.32;;;;;;;;;;5035155;28;20387;-57
2021/11/22 12:57:39;;;;;;;6.72;5.85;;;;;;;;;;5037055;28;20051;-58
2021/11/22 13:00:10;;;;;;;6.53;5.82;;;;;;;;;;5045336;28;20032;-57
2021/11/22 13:02:41;;;;;;;8.80;6.45;;;;;;;;;;5046452;28;20025;-58
2021/11/22 13:05:07;;;;;;;6.32;5.72;;;;;;;;;;5036190;28;20021;-58
2021/11/22 13:07:36;;;;;;;14.02;6.82;;;;;;;;;;5050829;28;20506;-57
2021/11/22 13:10:04;;;;;;;6.95;5.97;;;;;;;;;;5039813;28;20029;-58
2021/11/22 13:12:34;;;;;;;10.25;6.88;;;;;;;;;;5053090;28;20467;-58
2021/11/22 13:18:03;;;;;;;8.60;6.55;;;;;;;;;;5037795;28;20084;-58
2021/11/22 13:20:36;;;;;;;12.52;7.05;;;;;;;;;;5045239;28;20028;-56
2021/11/22 13:23:12;;;;;;;7.47;5.85;;;;;;;;;;5036843;28;20040;-58
2021/11/22 13:25:38;;;;;;;7.85;5.82;;;;;;;;;;5046483;28;20494;-57
2021/11/22 13:28:11;;;;;;;8.68;6.03;;;;;;;;;;5042179;28;20025;-58
2021/11/22 13:30:38;;;;;;;6.63;5.80;;;;;;;;;;5040514;28;20053;-58
2021/11/22 13:33:05;;;;;;;8.38;6.70;;;;;;;;;;5046418;28;20087;-57
2021/11/22 13:35:31;;;;;;;10.02;6.40;;;;;;;;;;5041680;28;20029;-58
2021/11/22 13:38:17;;;;;;;10.00;5.07;;;;;;;;;;5049630;28;20112;-57
2021/11/22 13:40:54;;;;;;;5.63;5.03;;;;;;;;;;5039516;28;20037;-58
2021/11/22 13:43:24;;;;;;;10.20;6.78;;;;;;;;;;5036340;28;20467;-57
2021/11/22 13:45:55;;;;;;;9.15;6.65;;;;;;;;;;5033290;28;20074;-57
2021/11/22 13:48:21;;;;;;;7.07;5.28;;;;;;;;;;5032465;28;20034;-54
2021/11/22 13:50:48;;;;;;;8.32;6.25;;;;;;;;;;5032782;28;20030;-57
2021/11/22 13:53:15;;;;;;;6.38;5.78;;;;;;;;;;5031199;28;20025;-58
2021/11/22 13:55:44;;;;;;;8.13;6.63;;;;;;;;;;5031544;28;20053;-56
2021/11/22 13:58:14;;;;;;;8.07;6.93;;;;;;;;;;5032563;28;20037;-58
2021/11/22 14:00:51;;;;;;;11.57;5.88;;;;;;;;;;5032636;28;20022;-56
2021/11/22 14:03:17;;;;;;;7.63;5.95;;;;;;;;;;5039713;28;20401;-56
2021/11/22 14:05:46;;;;;;;11.10;5.72;;;;;;;;;;5052582;28;20021;-58
2021/11/22 14:08:15;;;;;;;7.65;6.15;;;;;;;;;;5051881;28;20107;-57
2021/11/22 14:10:41;;;;;;;8.32;7.20;;;;;;;;;;5052871;28;20025;-57
2021/11/22 14:13:08;;;;;;;6.95;6.25;;;;;;;;;;5052765;28;20035;-56
2021/11/22 14:15:36;;;;;;;7.97;6.32;;;;;;;;;;5052629;28;20067;-57
2021/11/22 14:18:03;;;;;;;8.18;6.47;;;;;;;;;;5051736;28;20045;-57
2021/11/22 14:20:29;;;;;;;9.80;6.57;;;;;;;;;;5052420;28;20256;-57
2021/11/22 14:23:03;;;;;;;9.45;5.97;;;;;;;;;;5052474;28;20382;-57
2021/11/22 14:25:31;;;;;;;7.63;5.72;;;;;;;;;;5052651;28;20078;-57
2021/11/22 14:27:58;;;;;;;7.57;5.97;;;;;;;;;;5051657;28;20048;-57
2021/11/22 14:30:27;;;;;;;7.72;6.22;;;;;;;;;;5052420;28;20063;-57
2021/11/22 14:32:52;;;;;;;8.15;6.00;;;;;;;;;;5052184;28;20035;-56